createdAt,value
2017-06-14T00:00:05.959Z,65.2
2017-06-14T00:01:05.997Z,65.39
2017-06-14T00:02:06.037Z,65.68
2017-06-14T00:03:06.075Z,65.88
2017-06-14T00:04:06.115Z,66.35
2017-06-14T00:05:06.460Z,65.97
2017-06-14T00:06:06.191Z,65.88
2017-06-14T00:07:06.228Z,65.88
2017-06-14T00:08:06.267Z,65.97
2017-06-14T00:09:06.307Z,65.78
2017-06-14T00:10:06.344Z,66.06
2017-06-14T00:11:06.383Z,66.06
2017-06-14T00:12:06.557Z,66.35
2017-06-14T00:13:06.460Z,66.35
2017-06-14T00:14:06.501Z,66.54
2017-06-14T00:15:06.536Z,66.19
2017-06-14T00:16:06.573Z,66.35
2017-06-14T00:17:06.610Z,66.25
2017-06-14T00:18:06.652Z,66.16
2017-06-14T00:19:06.689Z,66.38
2017-06-14T00:20:06.728Z,66.38
2017-06-14T00:21:06.766Z,66
2017-06-14T00:22:06.805Z,66.25
2017-06-14T00:23:06.845Z,66.29
2017-06-14T00:24:06.882Z,66.29
2017-06-14T00:25:06.919Z,65.78
2017-06-14T00:26:06.958Z,65.97
2017-06-14T00:27:07.000Z,66.06
2017-06-14T00:28:07.035Z,66.06
2017-06-14T00:29:07.074Z,66.06
2017-06-14T00:30:07.113Z,66.25
2017-06-14T00:31:07.153Z,66.45
2017-06-14T00:32:07.194Z,66.35
2017-06-14T00:33:07.230Z,66.64
2017-06-14T00:34:07.269Z,66.54
2017-06-14T00:35:07.316Z,66.64
2017-06-14T00:36:07.345Z,66.54
2017-06-14T00:37:07.383Z,66.93
2017-06-14T00:38:07.433Z,66.83
2017-06-14T00:39:07.460Z,66.93
2017-06-14T00:40:07.499Z,66.74
2017-06-14T00:41:07.538Z,66.45
2017-06-14T00:42:07.574Z,66.54
2017-06-14T00:43:07.613Z,66.35
2017-06-14T00:44:07.651Z,67.31
2017-06-14T00:45:07.692Z,67.02
2017-06-14T00:46:07.728Z,67.02
2017-06-14T00:47:07.767Z,67.02
2017-06-14T00:48:07.803Z,66.93
2017-06-14T00:49:07.845Z,66.93
2017-06-14T00:50:07.882Z,67.02
2017-06-14T00:51:07.918Z,67.11
2017-06-14T00:52:07.959Z,66.83
2017-06-14T00:53:07.998Z,66.54
2017-06-14T00:54:08.034Z,66.74
2017-06-14T00:55:08.073Z,67.11
2017-06-14T00:56:08.112Z,66.83
2017-06-14T00:57:08.149Z,67.02
2017-06-14T00:58:08.187Z,67.41
2017-06-14T00:59:08.227Z,67.02
2017-06-14T01:00:08.265Z,67.11
2017-06-14T01:01:08.304Z,67.11
2017-06-14T01:02:08.420Z,67.31
2017-06-14T01:03:08.356Z,67.21
2017-06-14T01:04:08.394Z,67.21
2017-06-14T01:05:08.436Z,67.11
2017-06-14T01:06:08.472Z,67.11
2017-06-14T01:07:08.512Z,67.31
2017-06-14T01:08:08.549Z,67.6
2017-06-14T01:09:08.595Z,67.79
2017-06-14T01:10:08.628Z,67.47
2017-06-14T01:11:08.664Z,67.27
2017-06-14T01:12:08.703Z,67.85
2017-06-14T01:13:08.774Z,67.85
2017-06-14T01:14:08.780Z,67.76
2017-06-14T01:15:08.818Z,67.47
2017-06-14T01:16:08.856Z,67.47
2017-06-14T01:17:08.926Z,67.56
2017-06-14T01:18:08.937Z,67.56
2017-06-14T01:19:08.970Z,67.94
2017-06-14T01:20:09.008Z,67.85
2017-06-14T01:21:09.048Z,68.13
2017-06-14T01:22:09.087Z,68.23
2017-06-14T01:23:09.123Z,67.94
2017-06-14T01:24:09.160Z,68.13
2017-06-14T01:25:09.206Z,67.94
2017-06-14T01:26:09.235Z,68.42
2017-06-14T01:27:09.276Z,69
2017-06-14T01:28:09.323Z,68.42
2017-06-14T01:29:09.350Z,68.52
2017-06-14T01:30:09.391Z,68.33
2017-06-14T01:31:09.427Z,68.04
2017-06-14T01:32:09.469Z,68.23
2017-06-14T01:33:09.509Z,68.04
2017-06-14T01:34:09.543Z,68.62
2017-06-14T01:35:09.581Z,68.33
2017-06-14T01:36:09.617Z,68.52
2017-06-14T01:37:09.658Z,68.33
2017-06-14T01:38:09.695Z,68.33
2017-06-14T01:39:09.734Z,68.33
2017-06-14T01:40:09.769Z,68.62
2017-06-14T01:41:09.810Z,69.09
2017-06-14T01:42:09.844Z,68.52
2017-06-14T01:43:09.886Z,68.71
2017-06-14T01:44:09.924Z,68.9
2017-06-14T01:45:09.969Z,68.68
2017-06-14T01:46:09.997Z,69.06
2017-06-14T01:47:10.037Z,69.25
2017-06-14T01:48:10.074Z,69.06
2017-06-14T01:49:10.111Z,69.06
2017-06-14T01:50:10.150Z,69.06
2017-06-14T01:51:10.188Z,69.35
2017-06-14T01:52:10.257Z,69.15
2017-06-14T01:53:10.264Z,69.25
2017-06-14T01:54:10.306Z,68.87
2017-06-14T01:55:10.339Z,69.35
2017-06-14T01:56:10.380Z,69.06
2017-06-14T01:57:10.417Z,69.73
2017-06-14T01:58:10.455Z,69.82
2017-06-14T01:59:10.492Z,69.25
2017-06-14T02:00:10.530Z,69.73
2017-06-14T02:01:10.568Z,69.44
2017-06-14T02:02:10.606Z,69.54
2017-06-14T02:03:10.644Z,69.73
2017-06-14T02:04:10.681Z,69.64
2017-06-14T02:05:10.720Z,70.11
2017-06-14T02:06:10.759Z,69.92
2017-06-14T02:07:10.796Z,69.82
2017-06-14T02:08:10.834Z,69.82
2017-06-14T02:09:10.876Z,70.21
2017-06-14T02:10:10.918Z,70.01
2017-06-14T02:11:10.949Z,70.3
2017-06-14T02:12:10.985Z,70.4
2017-06-14T02:13:11.024Z,70.4
2017-06-14T02:14:11.064Z,70.59
2017-06-14T02:15:11.101Z,70.5
2017-06-14T02:16:11.139Z,70.21
2017-06-14T02:17:11.178Z,70.5
2017-06-14T02:18:11.212Z,70.01
2017-06-14T02:19:11.254Z,70.36
2017-06-14T02:20:11.289Z,70.5
2017-06-14T02:21:11.327Z,70.56
2017-06-14T02:22:11.364Z,70.65
2017-06-14T02:23:11.538Z,71.03
2017-06-14T02:24:11.745Z,71.07
2017-06-14T02:25:11.481Z,71.07
2017-06-14T02:26:11.517Z,71.22
2017-06-14T02:27:11.553Z,70.84
2017-06-14T02:28:11.592Z,70.75
2017-06-14T02:29:11.628Z,71.13
2017-06-14T02:30:11.666Z,70.94
2017-06-14T02:31:11.704Z,71.03
2017-06-14T02:32:11.742Z,70.94
2017-06-14T02:33:11.780Z,70.94
2017-06-14T02:34:11.822Z,70.94
2017-06-14T02:35:11.856Z,70.94
2017-06-14T02:36:11.894Z,70.84
2017-06-14T02:37:12.236Z,70.56
2017-06-14T02:38:12.271Z,70.75
2017-06-14T02:39:12.008Z,71.22
2017-06-14T02:40:12.069Z,71.51
2017-06-14T02:41:12.081Z,71.89
2017-06-14T02:42:12.124Z,71.61
2017-06-14T02:43:12.158Z,71.42
2017-06-14T02:44:12.196Z,71.32
2017-06-14T02:45:12.234Z,71.7
2017-06-14T02:46:12.269Z,71.51
2017-06-14T02:47:12.310Z,71.32
2017-06-14T02:48:12.348Z,71.7
2017-06-14T02:49:12.388Z,71.22
2017-06-14T02:50:12.419Z,71.7
2017-06-14T02:51:12.459Z,71.83
2017-06-14T02:52:12.501Z,71.93
2017-06-14T02:53:12.838Z,72.08
2017-06-14T02:54:12.571Z,71.99
2017-06-14T02:55:12.610Z,71.99
2017-06-14T02:56:12.651Z,71.83
2017-06-14T02:57:12.688Z,72.02
2017-06-14T02:58:12.724Z,72.08
2017-06-14T02:59:12.763Z,71.99
2017-06-14T03:00:12.800Z,71.7
2017-06-14T03:01:12.837Z,71.8
2017-06-14T03:02:13.179Z,71.8
2017-06-14T03:03:12.914Z,71.61
2017-06-14T03:04:12.951Z,71.8
2017-06-14T03:05:12.989Z,71.7
2017-06-14T03:06:13.026Z,71.89
2017-06-14T03:07:13.063Z,71.7
2017-06-14T03:08:13.102Z,72.28
2017-06-14T03:09:13.137Z,72.18
2017-06-14T03:10:13.177Z,72.08
2017-06-14T03:11:13.216Z,72.18
2017-06-14T03:12:13.252Z,72.18
2017-06-14T03:13:13.289Z,72.18
2017-06-14T03:14:13.329Z,72.18
2017-06-14T03:15:13.366Z,72.18
2017-06-14T03:16:13.403Z,72.37
2017-06-14T03:17:13.441Z,72.28
2017-06-14T03:18:13.482Z,71.99
2017-06-14T03:19:13.518Z,72.28
2017-06-14T03:20:13.584Z,72.12
2017-06-14T03:21:13.590Z,72.22
2017-06-14T03:22:13.634Z,72.69
2017-06-14T03:23:13.672Z,72.5
2017-06-14T03:24:13.706Z,72.6
2017-06-14T03:25:13.745Z,72.69
2017-06-14T03:26:13.782Z,72.5
2017-06-14T03:27:13.820Z,72.22
2017-06-14T03:28:13.861Z,72.44
2017-06-14T03:29:13.896Z,72.16
2017-06-14T03:30:13.937Z,72.34
2017-06-14T03:31:13.991Z,72.19
2017-06-14T03:32:14.029Z,72.38
2017-06-14T03:33:14.056Z,72.32
2017-06-14T03:34:14.091Z,72.61
2017-06-14T03:35:14.144Z,73.09
2017-06-14T03:36:14.169Z,72.94
2017-06-14T03:37:14.209Z,72.2
2017-06-14T03:38:14.260Z,71.86
2017-06-14T03:39:14.288Z,70.8
2017-06-14T03:40:14.329Z,70.55
2017-06-14T03:41:14.366Z,69.72
2017-06-14T03:42:14.408Z,68.95
2017-06-14T03:43:14.452Z,68.51
2017-06-14T03:44:14.489Z,67.48
2017-06-14T03:45:14.529Z,66.74
2017-06-14T03:46:14.567Z,66.07
2017-06-14T03:47:14.610Z,64.95
2017-06-14T03:48:14.647Z,63.92
2017-06-14T03:49:14.691Z,63.38
2017-06-14T03:50:14.733Z,62.8
2017-06-14T03:51:14.772Z,62.25
2017-06-14T03:52:14.820Z,61.71
2017-06-14T03:53:14.852Z,60.38
2017-06-14T03:54:14.893Z,59.23
2017-06-14T03:55:15.244Z,58.68
2017-06-14T03:56:14.978Z,58.39
2017-06-14T03:57:15.018Z,56.96
2017-06-14T03:58:15.059Z,56.32
2017-06-14T03:59:15.101Z,55.45
2017-06-14T04:00:15.143Z,54.51
2017-06-14T04:01:15.184Z,53.77
2017-06-14T04:02:15.231Z,52.73
2017-06-14T04:03:15.271Z,52.34
2017-06-14T04:04:15.311Z,51.59
2017-06-14T04:05:15.381Z,50.84
2017-06-14T04:06:15.399Z,49.87
2017-06-14T04:07:15.441Z,49.61
2017-06-14T04:08:15.484Z,49.05
2017-06-14T04:09:15.527Z,47.6
2017-06-14T04:10:15.569Z,47.03
2017-06-14T04:11:15.614Z,46.09
2017-06-14T04:12:15.657Z,45.31
2017-06-14T04:13:15.700Z,45.04
2017-06-14T04:14:15.744Z,43.98
2017-06-14T04:15:15.787Z,43.41
2017-06-14T04:16:15.833Z,42.64
2017-06-14T04:17:15.875Z,42.35
2017-06-14T04:18:15.922Z,42.08
2017-06-14T04:19:15.963Z,41.39
2017-06-14T04:20:16.009Z,40.73
2017-06-14T04:21:16.054Z,40.15
2017-06-14T04:22:16.411Z,39.98
2017-06-14T04:23:16.142Z,39
2017-06-14T04:24:16.499Z,38.83
2017-06-14T04:25:16.233Z,38.34
2017-06-14T04:26:16.278Z,37.48
2017-06-14T04:27:16.322Z,37.19
2017-06-14T04:28:16.685Z,36.43
2017-06-14T04:29:16.413Z,36.43
2017-06-14T04:30:16.778Z,35.47
2017-06-14T04:31:16.503Z,35.47
2017-06-14T04:32:16.551Z,35
2017-06-14T04:33:16.621Z,34.91
2017-06-14T04:34:16.959Z,33.65
2017-06-14T04:35:16.687Z,33.67
2017-06-14T04:36:16.731Z,32.81
2017-06-14T04:37:16.778Z,32.71
2017-06-14T04:38:16.825Z,32.34
2017-06-14T04:39:16.868Z,31.56
2017-06-14T04:40:16.916Z,30.47
2017-06-14T04:41:16.960Z,30.65
2017-06-14T04:42:17.007Z,30.73
2017-06-14T04:43:17.055Z,31.28
2017-06-14T04:44:17.098Z,31.87
2017-06-14T04:45:17.144Z,32.84
2017-06-14T04:46:17.187Z,32.35
2017-06-14T04:47:17.235Z,32.08
2017-06-14T04:48:17.278Z,31.7
2017-06-14T04:49:17.323Z,31.33
2017-06-14T04:50:17.368Z,31.35
2017-06-14T04:51:17.410Z,30.76
2017-06-14T04:52:17.458Z,30.27
2017-06-14T04:53:17.503Z,29.86
2017-06-14T04:54:17.549Z,30.71
2017-06-14T04:55:17.593Z,31.07
2017-06-14T04:56:17.635Z,31.53
2017-06-14T04:57:17.686Z,32.17
2017-06-14T04:58:17.723Z,32.71
2017-06-14T04:59:17.777Z,33.75
2017-06-14T05:00:17.815Z,34.12
2017-06-14T05:01:20.288Z,34.78
2017-06-14T05:02:17.903Z,35.05
2017-06-14T05:03:17.944Z,36.12
2017-06-14T05:04:17.991Z,36.62
2017-06-14T05:05:18.032Z,36.64
2017-06-14T05:06:18.078Z,36.1
2017-06-14T05:07:18.119Z,36.21
2017-06-14T05:08:18.170Z,35.17
2017-06-14T05:09:18.204Z,34.63
2017-06-14T05:10:18.245Z,33.85
2017-06-14T05:11:18.292Z,33.73
2017-06-14T05:12:18.337Z,34.4
2017-06-14T05:13:18.376Z,34.48
2017-06-14T05:14:18.420Z,34.95
2017-06-14T05:15:18.465Z,35.4
2017-06-14T05:16:18.514Z,36.06
2017-06-14T05:17:18.551Z,36.33
2017-06-14T05:18:18.599Z,36.8
2017-06-14T05:19:18.634Z,37.19
2017-06-14T05:20:18.823Z,37.55
2017-06-14T05:21:18.718Z,37.73
2017-06-14T05:22:18.760Z,38.2
2017-06-14T05:23:18.803Z,38.56
2017-06-14T05:24:18.845Z,38.95
2017-06-14T05:25:18.887Z,39.8
2017-06-14T05:26:18.928Z,39.32
2017-06-14T05:27:18.970Z,40.09
2017-06-14T05:28:19.014Z,40.67
2017-06-14T05:29:19.052Z,40.77
2017-06-14T05:30:19.100Z,40.67
2017-06-14T05:31:19.138Z,40.67
2017-06-14T05:32:19.182Z,41.05
2017-06-14T05:33:19.219Z,41.54
2017-06-14T05:34:19.292Z,41.91
2017-06-14T05:35:19.306Z,41.71
2017-06-14T05:36:19.345Z,42.18
2017-06-14T05:37:19.385Z,42.56
2017-06-14T05:38:19.427Z,42.94
2017-06-14T05:39:19.467Z,43.14
2017-06-14T05:40:19.510Z,43.24
2017-06-14T05:41:19.923Z,44.01
2017-06-14T05:42:19.594Z,45.38
2017-06-14T05:43:19.635Z,44.94
2017-06-14T05:44:19.676Z,44.53
2017-06-14T05:45:19.724Z,43.5
2017-06-14T05:46:19.767Z,42.4
2017-06-14T05:47:19.810Z,40.81
2017-06-14T05:48:19.853Z,39.12
2017-06-14T05:49:19.897Z,37.99
2017-06-14T05:50:19.946Z,36.76
2017-06-14T05:51:19.990Z,35.24
2017-06-14T05:52:20.045Z,34.68
2017-06-14T05:53:20.083Z,33.64
2017-06-14T05:54:20.128Z,32.99
2017-06-14T05:55:20.176Z,32.32
2017-06-14T05:56:20.226Z,31.47
2017-06-14T05:57:20.277Z,30.9
2017-06-14T05:58:20.333Z,29.44
2017-06-14T05:59:20.372Z,28.67
2017-06-14T06:00:20.443Z,28.19
2017-06-14T06:01:20.489Z,26.84
2017-06-14T06:02:20.540Z,26.65
2017-06-14T06:03:20.590Z,26.09
2017-06-14T06:04:20.640Z,25.12
2017-06-14T06:05:20.688Z,24.54
2017-06-14T06:06:20.739Z,24.06
2017-06-14T06:07:20.791Z,23.77
2017-06-14T06:08:20.841Z,22.99
2017-06-14T06:09:20.904Z,22.5
2017-06-14T06:10:20.946Z,22.12
2017-06-14T06:11:20.999Z,21.93
2017-06-14T06:12:21.049Z,20.94
2017-06-14T06:13:21.103Z,20.86
2017-06-14T06:14:21.156Z,20.56
2017-06-14T06:15:21.207Z,20.08
2017-06-14T06:16:21.260Z,19.98
2017-06-14T06:17:21.314Z,19.29
2017-06-14T06:18:21.365Z,18.99
2017-06-14T06:19:21.425Z,19.2
2017-06-14T06:20:21.472Z,19.01
2017-06-14T06:21:21.527Z,18.62
2017-06-14T06:22:21.579Z,18.13
2017-06-14T06:23:21.634Z,18.13
2017-06-14T06:24:21.688Z,17.73
2017-06-14T06:25:21.744Z,17.54
2017-06-14T06:26:21.795Z,16.96
2017-06-14T06:27:21.852Z,17.06
2017-06-14T06:28:21.906Z,16.56
2017-06-14T06:29:21.960Z,16.37
2017-06-14T06:30:22.025Z,15.88
2017-06-14T06:31:22.074Z,16.08
2017-06-14T06:32:22.125Z,15.49
2017-06-14T06:33:22.292Z,15.59
2017-06-14T06:34:22.238Z,15.49
2017-06-14T06:35:22.332Z,15
2017-06-14T06:36:22.347Z,15.19
2017-06-14T06:37:22.405Z,14.7
2017-06-14T06:38:22.458Z,14.8
2017-06-14T06:39:22.516Z,15
2017-06-14T06:40:22.677Z,14.4
2017-06-14T06:41:22.623Z,14.51
2017-06-14T06:42:22.680Z,14.51
2017-06-14T06:43:23.316Z,14.02
2017-06-14T06:44:22.833Z,13.82
2017-06-14T06:45:22.898Z,14.01
2017-06-14T06:46:22.904Z,14.01
2017-06-14T06:47:22.960Z,13.61
2017-06-14T06:48:23.016Z,14.4
2017-06-14T06:49:23.073Z,14.88
2017-06-14T06:50:23.488Z,15.94
2017-06-14T06:51:23.184Z,17.11
2017-06-14T06:52:23.241Z,16.89
2017-06-14T06:53:23.297Z,17.56
2017-06-14T06:54:23.466Z,18.12
2017-06-14T06:55:23.407Z,18.5
2017-06-14T06:56:23.772Z,18.88
2017-06-14T06:57:23.522Z,19.56
2017-06-14T06:58:23.578Z,19.54
2017-06-14T06:59:23.632Z,20.62
2017-06-14T07:00:23.692Z,20.99
2017-06-14T07:01:23.793Z,20.98
2017-06-14T07:02:23.799Z,21.66
2017-06-14T07:03:23.855Z,21.75
2017-06-14T07:04:23.911Z,21.85
2017-06-14T07:05:23.969Z,21.74
2017-06-14T07:06:24.027Z,22.42
2017-06-14T07:07:24.079Z,22.62
2017-06-14T07:08:24.136Z,22.81
2017-06-14T07:09:24.192Z,22.91
2017-06-14T07:10:24.246Z,22.62
2017-06-14T07:11:24.302Z,22.91
2017-06-14T07:12:24.359Z,22.99
2017-06-14T07:13:24.414Z,23.08
2017-06-14T07:14:24.472Z,23.57
2017-06-14T07:15:24.529Z,22.91
2017-06-14T07:16:24.583Z,21.76
2017-06-14T07:17:24.639Z,21.61
2017-06-14T07:18:24.695Z,20.85
2017-06-14T07:19:24.758Z,19.8
2017-06-14T07:20:24.810Z,18.94
2017-06-14T07:21:24.868Z,18.76
2017-06-14T07:22:24.924Z,17.69
2017-06-14T07:23:24.982Z,17.69
2017-06-14T07:24:25.040Z,17.3
2017-06-14T07:25:25.093Z,16.91
2017-06-14T07:26:25.152Z,16.13
2017-06-14T07:27:25.205Z,16.52
2017-06-14T07:28:25.264Z,16.52
2017-06-14T07:29:25.319Z,16.03
2017-06-14T07:30:25.378Z,15.94
2017-06-14T07:31:25.601Z,15.45
2017-06-14T07:32:25.675Z,15.55
2017-06-14T07:33:25.553Z,14.67
2017-06-14T07:34:25.793Z,14.86
2017-06-14T07:35:25.661Z,15.14
2017-06-14T07:36:25.719Z,15.42
2017-06-14T07:37:25.774Z,15.49
2017-06-14T07:38:25.828Z,15.97
2017-06-14T07:39:25.883Z,16.63
2017-06-14T07:40:25.936Z,16.91
2017-06-14T07:41:25.988Z,17.38
2017-06-14T07:42:26.041Z,18.15
2017-06-14T07:43:26.092Z,18.71
2017-06-14T07:44:26.146Z,19.87
2017-06-14T07:45:26.202Z,20.43
2017-06-14T07:46:26.247Z,20.71
2017-06-14T07:47:26.298Z,21.57
2017-06-14T07:48:26.346Z,22.62
2017-06-14T07:49:26.395Z,22.6
2017-06-14T07:50:26.445Z,23.56
2017-06-14T07:51:26.503Z,24.61
2017-06-14T07:52:26.541Z,25.18
2017-06-14T07:53:26.593Z,26.33
2017-06-14T07:54:26.642Z,27.11
2017-06-14T07:55:26.687Z,27.51
2017-06-14T07:56:26.737Z,27.15
2017-06-14T07:57:26.785Z,26.8
2017-06-14T07:58:26.835Z,26.35
2017-06-14T07:59:26.886Z,25.32
2017-06-14T08:00:26.936Z,25.05
2017-06-14T08:01:26.988Z,24.48
2017-06-14T08:02:27.062Z,23.63
2017-06-14T08:03:27.090Z,22.46
2017-06-14T08:04:27.143Z,22.16
2017-06-14T08:05:27.195Z,22.06
2017-06-14T08:06:27.244Z,22.03
2017-06-14T08:07:27.294Z,22.6
2017-06-14T08:08:27.343Z,22.87
2017-06-14T08:09:27.406Z,22.96
2017-06-14T08:10:27.441Z,23.62
2017-06-14T08:11:27.500Z,23.68
2017-06-14T08:12:27.539Z,24.84
2017-06-14T08:13:27.588Z,25.12
2017-06-14T08:14:27.635Z,25.79
2017-06-14T08:15:27.690Z,26.37
2017-06-14T08:16:27.733Z,26.87
2017-06-14T08:17:27.783Z,27.39
2017-06-14T08:18:27.849Z,26.34
2017-06-14T08:19:27.881Z,26.09
2017-06-14T08:20:27.936Z,25.54
2017-06-14T08:21:28.041Z,24.68
2017-06-14T08:22:28.082Z,23.72
2017-06-14T08:23:28.179Z,23.05
2017-06-14T08:24:28.139Z,22.08
2017-06-14T08:25:28.279Z,21.69
2017-06-14T08:26:28.255Z,21.97
2017-06-14T08:27:28.392Z,21.96
2017-06-14T08:28:28.347Z,21.95
2017-06-14T08:29:28.401Z,21.92
2017-06-14T08:30:28.448Z,22.22
2017-06-14T08:31:28.500Z,22.22
2017-06-14T08:32:28.554Z,22.41
2017-06-14T08:33:28.605Z,22.6
2017-06-14T08:34:28.658Z,22.02
2017-06-14T08:35:28.724Z,21.94
2017-06-14T08:36:28.808Z,21.64
2017-06-14T08:37:28.813Z,22.06
2017-06-14T08:38:28.865Z,21.77
2017-06-14T08:39:28.921Z,21.4
2017-06-14T08:40:28.973Z,20.93
2017-06-14T08:41:29.028Z,20.44
2017-06-14T08:42:29.323Z,19.96
2017-06-14T08:43:29.133Z,19.85
2017-06-14T08:44:29.188Z,20.53
2017-06-14T08:45:29.239Z,20.33
2017-06-14T08:46:29.294Z,20.44
2017-06-14T08:47:29.349Z,20.34
2017-06-14T08:48:29.399Z,20.35
2017-06-14T08:49:29.456Z,20.06
2017-06-14T08:50:29.510Z,20.07
2017-06-14T08:51:29.566Z,19.59
2017-06-14T08:52:29.927Z,19.01
2017-06-14T08:53:29.676Z,19.02
2017-06-14T08:54:29.838Z,18.34
2017-06-14T08:55:29.791Z,17.85
2017-06-14T08:56:29.839Z,17.94
2017-06-14T08:57:29.911Z,18.13
2017-06-14T08:58:29.955Z,18.21
2017-06-14T08:59:30.004Z,18.19
2017-06-14T09:00:30.065Z,18.68
2017-06-14T09:01:30.113Z,18.77
2017-06-14T09:02:30.173Z,19.06
2017-06-14T09:03:30.225Z,18.98
2017-06-14T09:04:30.967Z,18.98
2017-06-14T09:05:30.348Z,18.69
2017-06-14T09:06:30.713Z,18.61
2017-06-14T09:07:30.620Z,18.62
2017-06-14T09:08:30.639Z,17.94
2017-06-14T09:09:30.673Z,17.85
2017-06-14T09:10:30.625Z,17.66
2017-06-14T09:11:30.673Z,16.86
2017-06-14T09:12:30.729Z,16.75
2017-06-14T09:13:30.855Z,16.74
2017-06-14T09:14:30.872Z,17.31
2017-06-14T09:15:30.956Z,17.59
2017-06-14T09:16:30.984Z,18.06
2017-06-14T09:17:31.006Z,18.63
2017-06-14T09:18:31.062Z,19.12
2017-06-14T09:19:31.108Z,19.29
2017-06-14T09:20:31.175Z,18.99
2017-06-14T09:21:31.251Z,20.06
2017-06-14T09:22:31.265Z,19.95
2017-06-14T09:23:31.312Z,20.71
2017-06-14T09:24:31.370Z,21.19
2017-06-14T09:25:31.432Z,21.68
2017-06-14T09:26:31.824Z,21.68
2017-06-14T09:27:31.532Z,21.98
2017-06-14T09:28:31.611Z,21.89
2017-06-14T09:29:31.627Z,21.7
2017-06-14T09:30:31.681Z,21.8
2017-06-14T09:31:31.769Z,21.5
2017-06-14T09:32:31.830Z,21.89
2017-06-14T09:33:31.844Z,22.17
2017-06-14T09:34:31.945Z,21.88
2017-06-14T09:35:31.965Z,22.35
2017-06-14T09:36:32.041Z,22.73
2017-06-14T09:37:32.046Z,23.12
2017-06-14T09:38:32.128Z,23.41
2017-06-14T09:39:32.161Z,23.8
2017-06-14T09:40:32.192Z,23.71
2017-06-14T09:41:32.242Z,23.82
2017-06-14T09:42:32.321Z,24.22
2017-06-14T09:43:32.359Z,24.13
2017-06-14T09:44:33.112Z,23.83
2017-06-14T09:45:33.347Z,23.75
2017-06-14T09:46:33.209Z,23.75
2017-06-14T09:47:32.607Z,23.94
2017-06-14T09:48:32.840Z,23.94
2017-06-14T09:49:32.712Z,23.66
2017-06-14T09:50:32.914Z,23.48
2017-06-14T09:51:32.778Z,23.77
2017-06-14T09:52:32.921Z,24.08
2017-06-14T09:53:33.001Z,23.1
2017-06-14T09:54:32.940Z,23.11
2017-06-14T09:55:33.024Z,23
2017-06-14T09:56:33.162Z,22.91
2017-06-14T09:57:33.111Z,23.09
2017-06-14T09:58:33.465Z,22.99
2017-06-14T09:59:33.241Z,23.68
2017-06-14T10:00:33.347Z,23.09
2017-06-14T10:01:33.324Z,23
2017-06-14T10:02:33.380Z,23
2017-06-14T10:03:33.461Z,22.91
2017-06-14T10:04:33.491Z,22.91
2017-06-14T10:05:33.547Z,23
2017-06-14T10:06:33.605Z,22.81
2017-06-14T10:07:33.682Z,22.41
2017-06-14T10:08:33.718Z,22.42
2017-06-14T10:09:33.773Z,22.31
2017-06-14T10:10:33.833Z,21.92
2017-06-14T10:11:34.202Z,22.12
2017-06-14T10:12:33.948Z,22.31
2017-06-14T10:13:34.313Z,22.31
2017-06-14T10:14:34.063Z,22.3
2017-06-14T10:15:34.117Z,22.39
2017-06-14T10:16:34.174Z,22.77
2017-06-14T10:17:34.236Z,22.38
2017-06-14T10:18:34.287Z,22.58
2017-06-14T10:19:34.365Z,22.76
2017-06-14T10:20:34.398Z,23.05
2017-06-14T10:21:34.732Z,22.85
2017-06-14T10:22:34.594Z,23.34
2017-06-14T10:23:34.597Z,23.73
2017-06-14T10:24:34.635Z,23.83
2017-06-14T10:25:34.679Z,23.62
2017-06-14T10:26:34.736Z,23.82
2017-06-14T10:27:34.788Z,24.21
2017-06-14T10:28:34.845Z,23.91
2017-06-14T10:29:34.915Z,24.21
2017-06-14T10:30:34.998Z,24.21
2017-06-14T10:31:35.015Z,24.11
2017-06-14T10:32:35.070Z,24.11
2017-06-14T10:33:35.128Z,24.11
2017-06-14T10:34:35.181Z,24.11
2017-06-14T10:35:35.242Z,23.9
2017-06-14T10:36:35.297Z,24.29
2017-06-14T10:37:35.355Z,24.19
2017-06-14T10:38:35.411Z,24.38
2017-06-14T10:39:35.470Z,24.48
2017-06-14T10:40:35.524Z,24.37
2017-06-14T10:41:35.583Z,24.66
2017-06-14T10:42:35.638Z,24.85
2017-06-14T10:43:35.695Z,24.85
2017-06-14T10:44:35.755Z,25.03
2017-06-14T10:45:35.808Z,25.03
2017-06-14T10:46:35.867Z,25.14
2017-06-14T10:47:35.924Z,25.13
2017-06-14T10:48:35.981Z,25.42
2017-06-14T10:49:36.040Z,25.03
2017-06-14T10:50:36.095Z,25.21
2017-06-14T10:51:36.155Z,25.51
2017-06-14T10:52:36.212Z,25.51
2017-06-14T10:53:36.264Z,25.7
2017-06-14T10:54:36.326Z,26.08
2017-06-14T10:55:36.377Z,25.9
2017-06-14T10:56:36.428Z,25.98
2017-06-14T10:57:36.488Z,26.08
2017-06-14T10:58:36.577Z,26.28
2017-06-14T10:59:36.600Z,26.57
2017-06-14T11:00:36.652Z,26.37
2017-06-14T11:01:36.706Z,26.37
2017-06-14T11:02:36.760Z,26.37
2017-06-14T11:03:36.813Z,26.26
2017-06-14T11:04:36.867Z,26.26
2017-06-14T11:05:36.921Z,26.75
2017-06-14T11:06:36.973Z,27.14
2017-06-14T11:07:37.026Z,26.83
2017-06-14T11:08:37.075Z,27.12
2017-06-14T11:09:37.131Z,27.03
2017-06-14T11:10:37.178Z,27.22
2017-06-14T11:11:37.227Z,27.21
2017-06-14T11:12:37.279Z,27.5
2017-06-14T11:13:37.330Z,27.4
2017-06-14T11:14:37.379Z,27.5
2017-06-14T11:15:37.429Z,27.59
2017-06-14T11:16:37.476Z,27.98
2017-06-14T11:17:37.526Z,28.28
2017-06-14T11:18:37.623Z,28.17
2017-06-14T11:19:37.629Z,28.17
2017-06-14T11:20:37.675Z,28.26
2017-06-14T11:21:37.724Z,28.55
2017-06-14T11:22:37.769Z,28.55
2017-06-14T11:23:37.814Z,28.26
2017-06-14T11:24:37.872Z,28.55
2017-06-14T11:25:37.921Z,28.85
2017-06-14T11:26:37.961Z,28.54
2017-06-14T11:27:38.007Z,28.93
2017-06-14T11:28:38.152Z,28.74
2017-06-14T11:29:38.103Z,28.83
2017-06-14T11:30:38.153Z,28.93
2017-06-14T11:31:38.194Z,28.54
2017-06-14T11:32:38.245Z,28.91
2017-06-14T11:33:38.286Z,28.72
2017-06-14T11:34:38.336Z,28.53
2017-06-14T11:35:38.380Z,28.9
2017-06-14T11:36:38.427Z,28.9
2017-06-14T11:37:38.785Z,29.87
2017-06-14T11:38:38.521Z,29.68
2017-06-14T11:39:38.566Z,29.97
2017-06-14T11:40:38.628Z,30.16
2017-06-14T11:41:38.666Z,29.97
2017-06-14T11:42:38.703Z,30.44
2017-06-14T11:43:38.750Z,30.05
2017-06-14T11:44:38.793Z,30.73
2017-06-14T11:45:38.842Z,30.92
2017-06-14T11:46:38.886Z,31.6
2017-06-14T11:47:38.935Z,32.09
2017-06-14T11:48:38.978Z,31.99
2017-06-14T11:49:39.022Z,32.96
2017-06-14T11:50:39.068Z,33.62
2017-06-14T11:51:39.113Z,33.72
2017-06-14T11:52:39.158Z,33.62
2017-06-14T11:53:39.226Z,33.91
2017-06-14T11:54:39.556Z,34.11
2017-06-14T11:55:39.295Z,33.8
2017-06-14T11:56:39.337Z,33.6
2017-06-14T11:57:39.383Z,33.7
2017-06-14T11:58:39.736Z,33.51
2017-06-14T11:59:39.476Z,33.6
2017-06-14T12:00:39.519Z,34.09
2017-06-14T12:01:39.871Z,33.99
2017-06-14T12:02:39.609Z,33.99
2017-06-14T12:03:39.652Z,33.31
2017-06-14T12:04:40.072Z,33.89
2017-06-14T12:05:39.743Z,33.51
2017-06-14T12:06:39.786Z,33.51
2017-06-14T12:07:39.833Z,33.6
2017-06-14T12:08:39.876Z,32.94
2017-06-14T12:09:39.946Z,33.22
2017-06-14T12:10:39.966Z,33.41
2017-06-14T12:11:40.012Z,33.6
2017-06-14T12:12:40.056Z,33.51
2017-06-14T12:13:40.100Z,33.02
2017-06-14T12:14:40.144Z,32.92
2017-06-14T12:15:40.190Z,33.42
2017-06-14T12:16:40.251Z,33.31
2017-06-14T12:17:40.278Z,33.41
2017-06-14T12:18:40.351Z,33.6
2017-06-14T12:19:40.370Z,33.7
2017-06-14T12:20:40.413Z,33.51
2017-06-14T12:21:40.460Z,33.62
2017-06-14T12:22:40.503Z,33.8
2017-06-14T12:23:40.859Z,33.6
2017-06-14T12:24:40.590Z,33.6
2017-06-14T12:25:40.646Z,33.22
2017-06-14T12:26:40.681Z,33.51
2017-06-14T12:27:40.725Z,33.31
2017-06-14T12:28:40.771Z,33.31
2017-06-14T12:29:40.812Z,33.51
2017-06-14T12:30:40.857Z,33.89
2017-06-14T12:31:40.907Z,33.7
2017-06-14T12:32:40.947Z,33.41
2017-06-14T12:33:40.989Z,33.51
2017-06-14T12:34:41.036Z,33.41
2017-06-14T12:35:41.078Z,33.51
2017-06-14T12:36:41.125Z,33.12
2017-06-14T12:37:41.169Z,33.22
2017-06-14T12:38:41.213Z,33.7
2017-06-14T12:39:41.258Z,33.51
2017-06-14T12:40:41.301Z,34.09
2017-06-14T12:41:41.348Z,33.99
2017-06-14T12:42:41.398Z,33.89
2017-06-14T12:43:41.435Z,33.6
2017-06-14T12:44:41.479Z,34.01
2017-06-14T12:45:41.527Z,33.52
2017-06-14T12:46:41.567Z,32.92
2017-06-14T12:47:41.610Z,33.51
2017-06-14T12:48:41.656Z,33.51
2017-06-14T12:49:41.699Z,33.6
2017-06-14T12:50:43.925Z,33.7
2017-06-14T12:51:42.238Z,33.6
2017-06-14T12:52:41.833Z,33.6
2017-06-14T12:53:41.888Z,33.7
2017-06-14T12:54:41.920Z,33.8
2017-06-14T12:55:41.966Z,33.89
2017-06-14T12:56:42.007Z,33.99